createdAt,value
2022-09-21T00:01:39.366Z,53.20
2022-09-21T00:04:07.868Z,53.18
2022-09-21T00:06:37.322Z,53.16
2022-09-21T00:09:08.217Z,53.38
2022-09-21T00:11:38.181Z,53.21
2022-09-21T00:14:10.587Z,53.30
2022-09-21T00:16:39.842Z,53.32
2022-09-21T00:19:08.261Z,53.27
2022-09-21T00:21:38.153Z,53.30
2022-09-21T00:24:07.517Z,53.34
2022-09-21T00:26:37.329Z,53.45
2022-09-21T00:29:06.932Z,53.65
2022-09-21T00:31:35.599Z,53.39
2022-09-21T00:34:07.743Z,53.33
2022-09-21T00:36:36.380Z,53.47
2022-09-21T00:39:05.542Z,53.40
2022-09-21T00:41:36.954Z,53.41
2022-09-21T00:44:32.211Z,53.37
2022-09-21T00:47:08.708Z,53.45
2022-09-21T00:49:38.065Z,53.44
2022-09-21T00:52:08.727Z,53.37
2022-09-21T00:54:43.514Z,53.61
2022-09-21T00:57:13.691Z,53.78
2022-09-21T00:59:44.365Z,53.56
2022-09-21T01:02:13.166Z,53.39
2022-09-21T01:04:41.411Z,53.58
2022-09-21T01:07:18.533Z,53.68
2022-09-21T01:09:51.738Z,53.68
2022-09-21T01:12:39.688Z,53.79
2022-09-21T01:15:22.595Z,53.79
2022-09-21T01:18:00.560Z,53.73
2022-09-21T01:20:57.613Z,53.76
2022-09-21T01:23:47.011Z,53.92
2022-09-21T01:26:32.835Z,53.88
2022-09-21T01:29:21.319Z,53.83
2022-09-21T01:31:56.538Z,53.90
2022-09-21T01:34:32.065Z,53.90
2022-09-21T01:37:07.106Z,53.78
2022-09-21T01:39:37.063Z,53.87
2022-09-21T01:42:08.532Z,53.96
2022-09-21T01:44:41.123Z,54.03
2022-09-21T01:47:13.005Z,54.15
2022-09-21T01:49:46.648Z,54.16
2022-09-21T01:52:20.919Z,54.15
2022-09-21T01:54:55.046Z,54.11
2022-09-21T01:57:30.666Z,54.03
2022-09-21T02:00:02.659Z,54.03
2022-09-21T02:02:38.310Z,54.00
2022-09-21T02:05:08.141Z,53.94
2022-09-21T02:07:39.401Z,53.76
2022-09-21T02:10:11.059Z,53.81
2022-09-21T02:12:39.726Z,53.90
2022-09-21T02:15:11.333Z,53.85
2022-09-21T02:17:54.750Z,53.98
2022-09-21T02:20:29.866Z,53.92
2022-09-21T02:23:07.713Z,53.96
2022-09-21T02:25:48.215Z,53.97
2022-09-21T02:28:29.996Z,53.94
2022-09-21T02:31:08.984Z,53.96
2022-09-21T02:33:49.334Z,53.90
2022-09-21T02:36:26.472Z,53.86
2022-09-21T02:39:05.156Z,53.94
2022-09-21T02:41:47.676Z,53.83
2022-09-21T02:44:24.665Z,53.82
2022-09-21T02:46:59.261Z,53.91
2022-09-21T02:49:33.750Z,53.79
2022-09-21T02:52:07.058Z,53.92
2022-09-21T02:54:37.029Z,53.87
2022-09-21T02:57:07.285Z,53.80
2022-09-21T02:59:36.027Z,53.89
2022-09-21T03:02:07.041Z,53.85
2022-09-21T03:04:35.539Z,53.86
2022-09-21T03:07:03.787Z,53.97
2022-09-21T03:09:32.044Z,53.90
2022-09-21T03:12:00.277Z,53.79
2022-09-21T03:14:28.538Z,54.00
2022-09-21T03:16:56.908Z,53.83
2022-09-21T03:19:26.838Z,53.91
2022-09-21T03:21:55.614Z,53.86
2022-09-21T03:24:37.750Z,53.92
2022-09-21T03:27:06.213Z,53.85
2022-09-21T03:29:34.486Z,53.82
2022-09-21T03:32:03.583Z,53.85
2022-09-21T03:34:34.364Z,53.99
2022-09-21T03:37:03.074Z,53.99
2022-09-21T03:39:31.823Z,53.94
2022-09-21T03:42:00.466Z,53.83
2022-09-21T03:44:29.501Z,53.87
2022-09-21T03:46:58.029Z,53.81
2022-09-21T03:49:26.290Z,53.81
2022-09-21T03:51:56.191Z,53.78
2022-09-21T03:54:24.671Z,53.73
2022-09-21T03:56:53.116Z,53.88
2022-09-21T03:59:21.585Z,53.82
2022-09-21T04:01:49.939Z,53.64
2022-09-21T04:04:18.167Z,53.66
2022-09-21T04:06:47.040Z,53.78
2022-09-21T04:09:16.614Z,53.71
2022-09-21T04:11:46.699Z,53.76
2022-09-21T04:14:15.232Z,53.48
2022-09-21T04:16:43.492Z,53.62
2022-09-21T04:19:11.731Z,53.75
2022-09-21T04:21:40.011Z,53.58
2022-09-21T04:24:08.555Z,53.74
2022-09-21T04:26:38.399Z,53.90
2022-09-21T04:29:07.288Z,53.94
2022-09-21T04:31:35.904Z,54.28
2022-09-21T04:34:04.127Z,54.26
2022-09-21T04:36:36.538Z,54.34
2022-09-21T04:39:05.891Z,54.52
2022-09-21T04:41:34.294Z,54.68
2022-09-21T04:44:04.254Z,54.82
2022-09-21T04:46:32.583Z,54.71
2022-09-21T04:49:00.918Z,55.03
2022-09-21T04:51:29.181Z,55.09
2022-09-21T04:53:57.439Z,54.93
2022-09-21T04:56:25.625Z,55.13
2022-09-21T04:58:53.941Z,55.01
2022-09-21T05:01:23.742Z,54.96
2022-09-21T05:03:52.003Z,55.16
2022-09-21T05:06:20.241Z,55.13
2022-09-21T05:09:05.966Z,55.12
2022-09-21T05:11:34.201Z,55.18
2022-09-21T05:14:02.441Z,55.11
2022-09-21T05:16:32.104Z,55.17
2022-09-21T05:19:00.366Z,54.91
2022-09-21T05:21:28.859Z,54.90
2022-09-21T05:23:57.445Z,54.98
2022-09-21T05:26:26.156Z,55.24
2022-09-21T05:28:55.399Z,55.19
2022-09-21T05:31:39.393Z,55.31
2022-09-21T05:34:27.769Z,55.28
2022-09-21T05:37:03.822Z,55.02
2022-09-21T05:39:32.896Z,55.11
2022-09-21T05:42:02.462Z,55.05
2022-09-21T05:44:31.385Z,55.03
2022-09-21T05:47:10.177Z,55.06
2022-09-21T05:49:51.286Z,55.05
2022-09-21T05:52:31.532Z,55.44
2022-09-21T05:55:44.360Z,55.51
2022-09-21T05:58:29.533Z,55.73
2022-09-21T06:01:16.119Z,55.60
2022-09-21T06:03:48.760Z,55.80
2022-09-21T06:06:22.296Z,55.78
2022-09-21T06:08:51.139Z,55.85
2022-09-21T06:11:19.927Z,55.91
2022-09-21T06:13:48.173Z,55.94
2022-09-21T06:16:16.421Z,55.96
2022-09-21T06:18:46.135Z,55.93
2022-09-21T06:21:14.380Z,56.07
2022-09-21T06:23:42.708Z,56.01
2022-09-21T06:26:10.968Z,56.22
2022-09-21T06:28:39.204Z,56.24
2022-09-21T06:31:07.549Z,56.48
2022-09-21T06:33:37.758Z,56.50
2022-09-21T06:36:07.855Z,56.28
2022-09-21T06:38:36.960Z,56.41
2022-09-21T06:41:06.302Z,56.60
2022-09-21T06:43:34.723Z,56.75
2022-09-21T06:46:04.016Z,56.83
2022-09-21T06:48:35.112Z,57.02
2022-09-21T06:51:07.294Z,57.27
2022-09-21T06:53:36.111Z,57.57
2022-09-21T06:56:06.858Z,57.40
2022-09-21T06:58:36.217Z,57.27
2022-09-21T07:01:09.662Z,57.58
2022-09-21T07:03:39.094Z,57.32
2022-09-21T07:06:11.722Z,57.28
2022-09-21T07:11:28.574Z,57.17
2022-09-21T07:13:58.442Z,57.36
2022-09-21T07:16:28.013Z,57.35
2022-09-21T07:18:57.019Z,58.03
2022-09-21T07:21:27.383Z,57.80
2022-09-21T07:23:55.633Z,58.05
2022-09-21T07:26:23.881Z,58.09
2022-09-21T07:28:52.128Z,58.15
2022-09-21T07:31:20.454Z,58.15
2022-09-21T07:33:48.720Z,58.15
2022-09-21T07:36:17.856Z,58.40
2022-09-21T07:38:47.456Z,58.52
2022-09-21T07:41:16.201Z,58.50
2022-09-21T07:43:44.535Z,58.75
2022-09-21T07:46:15.561Z,58.72
2022-09-21T07:48:44.169Z,58.64
2022-09-21T07:51:15.078Z,58.39
2022-09-21T07:53:46.709Z,58.07
2022-09-21T07:56:18.104Z,58.05
2022-09-21T07:59:02.922Z,57.92
2022-09-21T08:01:32.238Z,57.99
2022-09-21T08:04:01.280Z,57.79
2022-09-21T08:06:32.995Z,57.47
2022-09-21T08:09:03.935Z,57.23
2022-09-21T08:11:33.622Z,57.38
2022-09-21T08:14:04.273Z,57.41
2022-09-21T08:16:34.016Z,57.49
2022-09-21T08:19:03.159Z,57.45
2022-09-21T08:21:31.436Z,57.25
2022-09-21T08:23:59.783Z,57.38
2022-09-21T08:26:29.408Z,57.66
2022-09-21T08:28:58.961Z,57.58
2022-09-21T08:31:27.815Z,57.79
2022-09-21T08:33:57.303Z,57.82
2022-09-21T08:36:26.401Z,57.57
2022-09-21T08:38:56.653Z,57.59
2022-09-21T08:41:32.292Z,57.51
2022-09-21T08:44:05.913Z,57.62
2022-09-21T08:46:35.568Z,57.62
2022-09-21T08:49:08.414Z,58.06
2022-09-21T08:51:45.664Z,58.05
2022-09-21T08:54:20.799Z,57.98
2022-09-21T08:57:05.150Z,58.13
2022-09-21T08:59:35.627Z,57.83
2022-09-21T09:02:23.025Z,57.94
2022-09-21T09:05:01.436Z,57.79
2022-09-21T09:07:55.996Z,57.71
2022-09-21T09:10:38.457Z,57.77
2022-09-21T09:13:39.364Z,57.09
2022-09-21T09:16:17.126Z,57.36
2022-09-21T09:18:52.721Z,57.06
2022-09-21T09:21:31.407Z,57.19
2022-09-21T09:24:04.703Z,56.78
2022-09-21T09:26:42.684Z,56.45
2022-09-21T09:29:22.984Z,56.36
2022-09-21T09:31:55.546Z,56.28
2022-09-21T09:34:30.671Z,55.59
2022-09-21T09:37:02.069Z,55.19
2022-09-21T09:39:31.765Z,54.17
2022-09-21T09:42:32.984Z,54.20
2022-09-21T09:45:31.512Z,54.20
2022-09-21T09:48:16.635Z,52.74
2022-09-21T09:50:45.119Z,52.24
2022-09-21T09:53:18.078Z,51.83
2022-09-21T09:55:49.831Z,51.25
2022-09-21T09:58:21.467Z,50.67
2022-09-21T10:00:55.283Z,50.09
2022-09-21T10:03:25.943Z,49.98
2022-09-21T10:05:55.075Z,49.43
2022-09-21T10:08:46.492Z,49.68
2022-09-21T10:11:17.120Z,48.55
2022-09-21T10:13:48.496Z,48.21
2022-09-21T10:16:23.762Z,48.64
2022-09-21T10:18:56.275Z,47.89
2022-09-21T10:21:26.616Z,47.82
2022-09-21T10:24:00.193Z,46.70
2022-09-21T10:26:33.611Z,46.65
2022-09-21T10:29:03.706Z,45.42
2022-09-21T10:31:33.401Z,45.71
2022-09-21T10:34:14.411Z,45.60
2022-09-21T10:36:51.654Z,44.70
2022-09-21T10:39:27.426Z,45.26
2022-09-21T10:42:05.144Z,44.10
2022-09-21T10:44:42.506Z,43.90
2022-09-21T10:47:24.927Z,43.72
2022-09-21T10:49:55.708Z,42.80
2022-09-21T10:52:32.463Z,42.48
2022-09-21T10:55:01.054Z,42.77
2022-09-21T10:57:30.723Z,41.77
2022-09-21T10:59:59.795Z,41.43
2022-09-21T11:02:38.592Z,41.44
2022-09-21T11:05:16.450Z,41.61
2022-09-21T11:07:51.154Z,41.02
2022-09-21T11:10:30.846Z,40.13
2022-09-21T11:13:19.294Z,39.50
2022-09-21T11:15:56.228Z,39.13
2022-09-21T11:18:37.675Z,38.82
2022-09-21T11:21:16.358Z,37.91
2022-09-21T11:23:56.474Z,38.52
2022-09-21T11:26:30.691Z,37.26
2022-09-21T11:29:07.015Z,37.03
2022-09-21T11:31:53.893Z,36.97
2022-09-21T11:35:17.265Z,37.42
2022-09-21T11:38:04.326Z,36.39
2022-09-21T11:41:01.829Z,36.63
2022-09-21T11:43:52.407Z,35.89
2022-09-21T11:46:31.078Z,35.04
2022-09-21T11:49:19.667Z,34.63
2022-09-21T11:52:09.196Z,34.49
2022-09-21T11:55:06.147Z,34.95
2022-09-21T11:57:42.454Z,34.20
2022-09-21T12:00:17.007Z,34.05
2022-09-21T12:03:32.176Z,33.82
2022-09-21T12:06:17.608Z,32.77
2022-09-21T12:09:04.887Z,32.26
2022-09-21T12:11:43.123Z,32.17
2022-09-21T12:14:23.979Z,32.20
2022-09-21T12:17:06.152Z,32.20
2022-09-21T12:19:45.744Z,32.02
2022-09-21T12:22:19.619Z,31.32
2022-09-21T12:24:53.556Z,30.84
2022-09-21T12:27:30.678Z,31.32
2022-09-21T12:30:03.883Z,30.86
2022-09-21T12:32:49.456Z,31.16
2022-09-21T12:35:23.950Z,30.62
2022-09-21T12:37:59.746Z,31.20
2022-09-21T12:40:39.533Z,31.38
2022-09-21T12:43:23.038Z,30.21
2022-09-21T12:45:59.409Z,30.30
2022-09-21T12:48:36.508Z,30.56
2022-09-21T12:51:15.555Z,30.05
2022-09-21T12:53:50.762Z,28.92
2022-09-21T12:56:37.559Z,28.78
2022-09-21T12:59:24.582Z,28.10
2022-09-21T13:02:00.696Z,28.43
2022-09-21T13:04:53.403Z,29.25
2022-09-21T13:07:55.373Z,29.06
2022-09-21T13:10:39.641Z,28.75
2022-09-21T13:13:19.894Z,28.98
2022-09-21T13:15:50.062Z,29.32
2022-09-21T13:18:25.225Z,29.61
2022-09-21T13:20:55.604Z,30.23
2022-09-21T13:23:29.568Z,30.04
2022-09-21T13:26:05.699Z,29.79
2022-09-21T13:29:06.687Z,30.25
2022-09-21T13:31:57.643Z,30.22
2022-09-21T13:34:29.816Z,30.13
2022-09-21T13:37:35.110Z,30.32
2022-09-21T13:40:40.885Z,29.79
2022-09-21T13:43:21.567Z,29.65
2022-09-21T13:45:57.883Z,29.75
2022-09-21T13:48:34.552Z,29.15
2022-09-21T13:51:10.248Z,29.29
2022-09-21T13:53:42.172Z,28.60
2022-09-21T13:56:20.334Z,28.54
2022-09-21T13:58:53.183Z,28.24
2022-09-21T14:04:26.484Z,27.98
2022-09-21T14:06:57.086Z,27.85
2022-09-21T14:09:29.621Z,28.24
2022-09-21T14:12:02.746Z,27.56
2022-09-21T14:14:37.216Z,27.86
2022-09-21T14:17:33.281Z,27.86
2022-09-21T14:20:02.294Z,27.83
2022-09-21T14:22:44.120Z,28.16
2022-09-21T14:25:50.787Z,28.56
2022-09-21T14:28:23.494Z,28.21
2022-09-21T14:30:57.866Z,28.13
2022-09-21T14:33:34.005Z,28.04
2022-09-21T14:36:08.743Z,28.24
2022-09-21T14:38:51.677Z,27.92
2022-09-21T14:41:25.497Z,27.78
2022-09-21T14:43:56.650Z,27.76
2022-09-21T14:46:59.642Z,27.77
2022-09-21T14:49:52.237Z,28.10
2022-09-21T14:52:33.114Z,27.40
2022-09-21T14:55:15.770Z,28.04
2022-09-21T14:58:21.615Z,27.96
2022-09-21T15:00:50.292Z,27.82
2022-09-21T15:03:44.840Z,28.10
2022-09-21T15:06:41.336Z,28.28
2022-09-21T15:09:54.510Z,28.50
2022-09-21T15:12:30.040Z,28.32
2022-09-21T15:15:21.944Z,28.56
2022-09-21T15:17:58.623Z,29.15
2022-09-21T15:20:29.559Z,29.20
2022-09-21T15:23:00.920Z,28.74
2022-09-21T15:25:33.483Z,28.94
2022-09-21T15:28:02.215Z,28.72
2022-09-21T15:30:33.789Z,29.46
2022-09-21T15:33:03.811Z,29.52
2022-09-21T15:35:33.959Z,30.33
2022-09-21T15:38:03.781Z,30.26
2022-09-21T15:40:36.324Z,30.67
2022-09-21T15:43:09.318Z,30.79
2022-09-21T15:45:51.389Z,30.16
2022-09-21T15:48:20.661Z,30.25
2022-09-21T15:50:52.987Z,30.43
2022-09-21T15:53:27.408Z,30.48
2022-09-21T15:55:55.818Z,30.99
2022-09-21T15:58:37.121Z,31.29
2022-09-21T16:01:11.340Z,31.81
2022-09-21T16:03:40.722Z,31.68
2022-09-21T16:06:27.676Z,31.68
2022-09-21T16:08:57.441Z,32.31
2022-09-21T16:11:37.825Z,32.31
2022-09-21T16:14:31.025Z,32.47
2022-09-21T16:17:27.592Z,32.42
2022-09-21T16:20:17.306Z,32.77
2022-09-21T16:22:48.453Z,33.35
2022-09-21T16:25:32.701Z,33.40
2022-09-21T16:28:04.473Z,33.91
2022-09-21T16:30:48.881Z,34.18
2022-09-21T16:33:43.961Z,34.27
2022-09-21T16:36:42.611Z,34.54
2022-09-21T16:39:17.367Z,34.91
2022-09-21T16:42:00.159Z,34.97
2022-09-21T16:44:35.403Z,35.31
2022-09-21T16:47:05.188Z,35.48
2022-09-21T16:49:35.642Z,35.77
2022-09-21T16:52:04.482Z,35.63
2022-09-21T16:54:32.767Z,35.63
2022-09-21T16:57:03.940Z,35.99
2022-09-21T16:59:33.242Z,36.03
2022-09-21T17:02:04.226Z,36.33
2022-09-21T17:04:36.094Z,36.31
2022-09-21T17:07:06.076Z,36.81
2022-09-21T17:09:38.434Z,36.83
2022-09-21T17:12:11.568Z,37.13
2022-09-21T17:14:46.699Z,36.99
2022-09-21T17:17:20.714Z,37.17
2022-09-21T17:19:50.880Z,37.22
2022-09-21T17:22:19.700Z,37.46
2022-09-21T17:24:52.124Z,37.69
2022-09-21T17:27:26.665Z,37.83
2022-09-21T17:29:56.476Z,37.82
2022-09-21T17:32:25.791Z,38.13
2022-09-21T17:35:01.659Z,38.28
2022-09-21T17:37:30.014Z,38.49
2022-09-21T17:39:59.211Z,38.76
2022-09-21T17:42:29.680Z,38.98
2022-09-21T17:45:16.775Z,39.04
2022-09-21T17:47:45.543Z,39.23
2022-09-21T17:50:24.334Z,39.49
2022-09-21T17:53:11.203Z,39.68
2022-09-21T17:55:40.565Z,39.79
2022-09-21T17:58:39.854Z,39.82
2022-09-21T18:01:15.585Z,40.02
2022-09-21T18:03:44.657Z,40.13
2022-09-21T18:06:14.527Z,40.47
2022-09-21T18:08:43.423Z,40.77
2022-09-21T18:11:31.807Z,40.74
2022-09-21T18:14:10.382Z,40.79
2022-09-21T18:16:54.266Z,41.04
2022-09-21T18:19:38.177Z,41.14
2022-09-21T18:22:18.454Z,41.30
2022-09-21T18:24:47.698Z,41.28
2022-09-21T18:27:18.655Z,41.52
2022-09-21T18:29:49.115Z,41.62
2022-09-21T18:32:43.799Z,41.65
2022-09-21T18:35:44.945Z,41.70
2022-09-21T18:38:25.688Z,41.89
2022-09-21T18:41:13.906Z,42.01
2022-09-21T18:43:59.169Z,42.05
2022-09-21T18:46:38.285Z,42.11
2022-09-21T18:49:17.238Z,42.08
2022-09-21T18:51:51.967Z,42.30
2022-09-21T18:54:24.092Z,42.27
2022-09-21T18:56:52.988Z,42.36
2022-09-21T18:59:22.158Z,42.41
2022-09-21T19:01:53.131Z,42.62
2022-09-21T19:04:22.312Z,42.73
2022-09-21T19:06:59.919Z,42.72
2022-09-21T19:09:44.546Z,42.95
2022-09-21T19:12:23.459Z,42.93
2022-09-21T19:15:03.798Z,42.86
2022-09-21T19:17:59.331Z,42.87
2022-09-21T19:20:44.504Z,42.91
2022-09-21T19:23:30.226Z,43.15
2022-09-21T19:26:05.862Z,43.14
2022-09-21T19:29:02.861Z,43.16
2022-09-21T19:31:33.084Z,43.24
2022-09-21T19:34:15.440Z,43.24
2022-09-21T19:36:44.973Z,43.28
2022-09-21T19:39:13.877Z,43.58
2022-09-21T19:41:59.436Z,43.63
2022-09-21T19:44:46.028Z,43.64
2022-09-21T19:47:25.767Z,43.78
2022-09-21T19:50:00.151Z,43.69
2022-09-21T19:52:32.901Z,43.99
2022-09-21T19:55:19.481Z,44.05
2022-09-21T19:58:02.631Z,43.92
2022-09-21T20:00:32.567Z,43.95
2022-09-21T20:03:07.268Z,44.15
2022-09-21T20:05:48.575Z,44.20
2022-09-21T20:08:24.009Z,44.32
2022-09-21T20:11:10.053Z,44.35
2022-09-21T20:13:57.779Z,44.24
2022-09-21T20:16:38.899Z,44.59
2022-09-21T20:19:20.968Z,44.55
2022-09-21T20:22:00.453Z,44.67
2022-09-21T20:24:34.738Z,44.64
2022-09-21T20:27:07.427Z,44.41
2022-09-21T20:29:35.812Z,44.62
2022-09-21T20:32:04.151Z,44.77
2022-09-21T20:34:32.785Z,45.03
2022-09-21T20:37:02.359Z,44.95
2022-09-21T20:39:30.633Z,44.89
2022-09-21T20:41:59.603Z,44.85
2022-09-21T20:44:27.838Z,44.83
2022-09-21T20:46:56.117Z,45.01
2022-09-21T20:49:24.380Z,45.04
2022-09-21T20:51:52.661Z,44.95
2022-09-21T20:54:23.230Z,45.04
2022-09-21T20:56:51.458Z,45.02
2022-09-21T20:59:19.717Z,45.20
2022-09-21T21:01:48.097Z,45.43
2022-09-21T21:04:16.646Z,45.42
2022-09-21T21:06:45.411Z,45.54
2022-09-21T21:09:13.663Z,45.62
2022-09-21T21:11:43.257Z,45.67
2022-09-21T21:14:11.509Z,45.92
2022-09-21T21:16:39.814Z,45.71
2022-09-21T21:19:08.155Z,45.79
2022-09-21T21:21:36.668Z,46.00
2022-09-21T21:24:22.753Z,46.02
2022-09-21T21:27:02.614Z,46.02
2022-09-21T21:29:32.015Z,46.17
2022-09-21T21:32:00.659Z,46.51
2022-09-21T21:34:29.222Z,46.47
2022-09-21T21:36:57.580Z,46.36
2022-09-21T21:39:25.895Z,46.39
2022-09-21T21:41:55.546Z,46.35
2022-09-21T21:44:23.934Z,46.37
2022-09-21T21:46:53.355Z,46.23
2022-09-21T21:49:21.903Z,46.30
2022-09-21T21:51:50.460Z,46.31
2022-09-21T21:54:19.463Z,46.26
2022-09-21T21:56:47.865Z,46.55
2022-09-21T21:59:18.128Z,46.54
2022-09-21T22:01:46.855Z,46.66
2022-09-21T22:04:15.662Z,46.65
2022-09-21T22:06:44.345Z,46.84
2022-09-21T22:09:14.743Z,46.74
2022-09-21T22:11:43.106Z,46.76
2022-09-21T22:14:11.667Z,46.72
2022-09-21T22:16:41.412Z,46.83
2022-09-21T22:19:10.222Z,46.76
2022-09-21T22:21:42.449Z,46.96
2022-09-21T22:24:11.366Z,46.93
2022-09-21T22:26:42.044Z,47.08
2022-09-21T22:29:13.162Z,47.09
2022-09-21T22:31:45.283Z,47.11
2022-09-21T22:34:14.770Z,47.19
2022-09-21T22:36:44.357Z,47.24
2022-09-21T22:39:13.623Z,47.29
2022-09-21T22:41:43.446Z,47.44
2022-09-21T22:44:12.287Z,47.32
2022-09-21T22:46:42.233Z,47.24
2022-09-21T22:49:10.568Z,47.24
2022-09-21T22:51:39.011Z,47.25
2022-09-21T22:54:07.750Z,47.24
2022-09-21T22:56:36.491Z,47.35
2022-09-21T22:59:06.529Z,47.59
2022-09-21T23:01:37.513Z,47.55
2022-09-21T23:04:09.905Z,47.64
2022-09-21T23:06:41.390Z,47.67
2022-09-21T23:09:14.042Z,47.79
2022-09-21T23:11:47.400Z,47.68
2022-09-21T23:14:16.745Z,47.77
2022-09-21T23:16:45.277Z,47.66
2022-09-21T23:19:16.419Z,47.74
2022-09-21T23:21:46.911Z,47.60
2022-09-21T23:24:15.383Z,47.68
2022-09-21T23:26:45.609Z,47.97
2022-09-21T23:29:16.571Z,47.79
2022-09-21T23:31:46.371Z,47.73
2022-09-21T23:34:17.323Z,47.71
2022-09-21T23:36:46.676Z,47.83
2022-09-21T23:39:16.609Z,47.83
2022-09-21T23:41:45.162Z,47.95
2022-09-21T23:44:13.697Z,47.96
2022-09-21T23:46:42.682Z,47.93
2022-09-21T23:49:11.318Z,47.91
2022-09-21T23:51:41.111Z,48.07
2022-09-21T23:54:09.825Z,48.24
2022-09-21T23:56:38.275Z,48.37
2022-09-21T23:59:06.569Z,48.21
